Time;durP1;ratioP1;P1;durP2;ratioP2;P2;SDS_P1;SDS_P2;PMS_P1;PMS_P2;Temp;Humidity;BMP_temperature;BMP_pressure;BME280_temperature;BME280_humidity;BME280_pressure;Samples;Min_cycle;Max_cycle;Signal;HPM_P1;HPM_P2
2023/05/22 00:01:43;;;;;;;18.70;14.25;;;18.60;99.90;;;;;;5030733;28;20030;-77
2023/05/22 00:04:12;;;;;;;19.33;14.55;;;18.50;99.90;;;;;;5030590;28;20038;-77
2023/05/22 00:06:41;;;;;;;21.95;16.85;;;18.40;99.90;;;;;;5030630;28;20084;-77
2023/05/22 00:09:06;;;;;;;19.83;15.18;;;18.40;99.90;;;;;;5030530;28;20041;-77
2023/05/22 00:11:33;;;;;;;16.85;15.05;;;18.30;99.90;;;;;;5030659;28;20478;-77
2023/05/22 00:13:59;;;;;;;17.25;14.60;;;18.30;99.90;;;;;;5030518;28;20040;-77
2023/05/22 00:16:24;;;;;;;17.60;15.65;;;18.30;99.90;;;;;;5030507;28;20041;-77
2023/05/22 00:18:50;;;;;;;17.60;14.63;;;18.30;99.90;;;;;;5030447;28;20497;-77
2023/05/22 00:21:15;;;;;;;17.65;14.35;;;18.20;99.90;;;;;;5030048;28;20034;-77
2023/05/22 00:23:41;;;;;;;16.58;14.20;;;18.20;99.90;;;;;;5030653;28;20041;-77
2023/05/22 00:26:07;;;;;;;16.38;13.68;;;18.30;99.90;;;;;;5030624;28;20037;-77
2023/05/22 00:28:32;;;;;;;17.33;15.23;;;18.30;99.90;;;;;;5030399;28;20037;-77
2023/05/22 00:30:58;;;;;;;19.52;15.55;;;18.30;99.90;;;;;;5033989;28;20037;-77
2023/05/22 00:33:23;;;;;;;18.42;14.25;;;18.30;99.90;;;;;;5034039;28;20045;-77
2023/05/22 00:35:49;;;;;;;16.50;13.75;;;18.30;99.90;;;;;;5034121;28;20033;-77
2023/05/22 00:38:34;;;;;;;17.10;13.60;;;18.40;99.90;;;;;;5033859;28;20034;-77
2023/05/22 00:41:00;;;;;;;17.38;14.98;;;18.30;99.90;;;;;;5034164;28;20433;-77
2023/05/22 00:43:26;;;;;;;16.08;14.38;;;18.20;99.90;;;;;;5016098;28;20057;-77
2023/05/22 00:45:53;;;;;;;19.55;15.15;;;18.30;99.90;;;;;;5034015;28;20037;-77
2023/05/22 00:48:20;;;;;;;18.02;14.13;;;18.20;99.90;;;;;;5033714;28;20060;-77
2023/05/22 00:50:46;;;;;;;18.00;14.60;;;18.20;99.90;;;;;;5033848;28;20044;-77
2023/05/22 00:53:13;;;;;;;19.10;13.65;;;18.20;99.90;;;;;;5033957;28;20042;-77
2023/05/22 00:55:39;;;;;;;21.55;14.55;;;18.30;99.90;;;;;;5033834;28;20045;-77
2023/05/22 00:58:06;;;;;;;17.80;15.40;;;18.20;99.90;;;;;;5033713;28;20111;-77
2023/05/22 01:00:34;;;;;;;18.10;14.52;;;18.20;99.90;;;;;;5033471;28;20038;-77
2023/05/22 01:03:00;;;;;;;19.75;15.00;;;18.20;99.90;;;;;;5033580;28;20056;-77
2023/05/22 01:05:25;;;;;;;19.48;14.73;;;18.20;99.90;;;;;;5033688;28;20041;-77
2023/05/22 01:07:52;;;;;;;17.85;15.30;;;18.20;99.90;;;;;;5033576;28;20048;-77
2023/05/22 01:10:17;;;;;;;20.23;15.90;;;18.10;99.90;;;;;;5032409;28;20083;-77
2023/05/22 01:13:00;;;;;;;17.83;15.52;;;18.10;99.90;;;;;;5033446;28;20033;-76
2023/05/22 01:15:40;;;;;;;20.67;16.13;;;18.00;99.90;;;;;;5033306;28;20091;-77
2023/05/22 01:18:18;;;;;;;19.45;15.77;;;18.00;99.90;;;;;;5029286;28;20393;-77
2023/05/22 01:20:56;;;;;;;20.02;16.60;;;17.90;99.90;;;;;;5033228;28;20060;-77
2023/05/22 01:23:35;;;;;;;18.85;16.40;;;17.90;99.90;;;;;;5033287;28;20133;-76
2023/05/22 01:26:27;;;;;;;18.25;16.10;;;17.90;99.90;;;;;;5033040;28;20410;-77
2023/05/22 01:29:14;;;;;;;19.58;16.73;;;17.90;99.90;;;;;;5032560;28;20046;-76
2023/05/22 01:31:42;;;;;;;20.88;17.95;;;17.80;99.90;;;;;;5025344;28;20501;-77
2023/05/22 01:34:10;;;;;;;18.95;16.90;;;17.70;99.90;;;;;;5032969;28;20513;-77
2023/05/22 01:36:37;;;;;;;20.50;17.67;;;17.70;99.90;;;;;;5033071;28;20495;-76
2023/05/22 01:39:05;;;;;;;22.45;17.88;;;17.70;99.90;;;;;;5032783;28;20683;-77
2023/05/22 01:41:34;;;;;;;23.60;18.45;;;17.50;99.90;;;;;;5032991;28;20072;-77
2023/05/22 01:44:00;;;;;;;22.15;17.73;;;17.40;99.90;;;;;;5032848;28;20044;-77
2023/05/22 01:46:29;;;;;;;24.45;18.15;;;17.40;99.90;;;;;;5032751;28;20531;-77
2023/05/22 01:48:55;;;;;;;20.55;17.92;;;17.40;99.90;;;;;;5032550;28;20123;-77
2023/05/22 01:51:50;;;;;;;22.45;18.45;;;17.30;99.90;;;;;;5032787;28;20449;-77
2023/05/22 01:54:35;;;;;;;22.00;18.08;;;17.30;99.90;;;;;;5029818;28;20045;-77
2023/05/22 01:57:23;;;;;;;22.27;18.38;;;17.20;99.90;;;;;;5032507;28;20412;-77
2023/05/22 02:00:08;;;;;;;20.27;17.42;;;17.20;99.90;;;;;;5032601;28;20037;-77
2023/05/22 02:02:36;;;;;;;22.83;19.02;;;17.30;99.90;;;;;;5032588;28;20457;-77
2023/05/22 02:05:04;;;;;;;22.65;17.83;;;17.40;99.90;;;;;;5032490;28;20528;-77
2023/05/22 02:07:32;;;;;;;19.00;16.55;;;17.40;99.90;;;;;;5032204;28;20029;-77
2023/05/22 02:09:58;;;;;;;18.58;15.98;;;17.50;99.90;;;;;;5014607;28;20041;-77
2023/05/22 02:12:24;;;;;;;22.52;18.75;;;17.50;99.90;;;;;;5032346;28;20033;-77
2023/05/22 02:14:50;;;;;;;20.45;16.48;;;17.50;99.90;;;;;;5032421;28;20033;-77
2023/05/22 02:17:20;;;;;;;22.65;18.55;;;17.40;99.90;;;;;;5032260;28;20107;-77
2023/05/22 02:19:46;;;;;;;21.73;18.05;;;17.40;99.90;;;;;;5025249;28;20123;-77
2023/05/22 02:22:12;;;;;;;22.67;17.40;;;17.40;99.90;;;;;;5032044;28;20069;-77
2023/05/22 02:24:44;;;;;;;20.42;18.23;;;17.30;99.90;;;;;;5032224;28;20029;-77
2023/05/22 02:27:10;;;;;;;22.38;18.48;;;17.40;99.90;;;;;;5032275;28;20160;-77
2023/05/22 02:29:36;;;;;;;24.42;19.92;;;17.30;99.90;;;;;;5031829;28;20116;-77
2023/05/22 02:32:02;;;;;;;22.58;18.80;;;17.30;99.90;;;;;;5032039;28;20041;-77
2023/05/22 02:34:30;;;;;;;23.23;19.55;;;17.30;99.90;;;;;;5031701;28;20116;-77
2023/05/22 02:36:59;;;;;;;24.17;19.15;;;17.20;99.90;;;;;;5031962;28;20034;-77
2023/05/22 02:39:27;;;;;;;22.20;19.05;;;17.20;99.90;;;;;;5031546;28;20056;-77
2023/05/22 02:41:52;;;;;;;20.70;18.48;;;17.30;99.90;;;;;;5031794;28;20037;-77
2023/05/22 02:44:18;;;;;;;25.55;18.30;;;17.30;99.90;;;;;;5031772;28;20590;-77
2023/05/22 02:46:44;;;;;;;23.27;19.45;;;17.30;99.90;;;;;;5031762;28;20124;-77
2023/05/22 02:49:10;;;;;;;22.65;19.15;;;17.30;99.90;;;;;;5031487;28;20068;-77
2023/05/22 02:51:35;;;;;;;23.67;19.58;;;17.30;99.90;;;;;;5031114;28;20029;-77
2023/05/22 02:54:01;;;;;;;22.70;19.48;;;17.20;99.90;;;;;;5031503;28;20076;-77
2023/05/22 02:56:27;;;;;;;23.95;19.75;;;17.20;99.90;;;;;;5031416;28;20447;-77
2023/05/22 02:58:53;;;;;;;24.77;19.30;;;17.10;99.90;;;;;;5031437;28;20091;-77
2023/05/22 03:01:19;;;;;;;25.45;19.83;;;17.00;99.90;;;;;;5031293;28;20144;-77
2023/05/22 03:03:47;;;;;;;25.75;19.08;;;17.10;99.90;;;;;;5031286;28;20041;-78
2023/05/22 03:06:12;;;;;;;24.20;20.15;;;17.10;99.90;;;;;;5031556;28;20390;-77
2023/05/22 03:08:42;;;;;;;21.80;19.00;;;17.20;99.90;;;;;;5031456;28;20045;-77
2023/05/22 03:11:08;;;;;;;20.92;18.50;;;17.20;99.90;;;;;;5030043;28;20121;-76
2023/05/22 03:13:33;;;;;;;23.25;18.95;;;17.20;99.90;;;;;;5031167;28;20034;-76
2023/05/22 03:15:59;;;;;;;22.80;18.42;;;17.30;99.90;;;;;;5031111;28;20056;-77
2023/05/22 03:18:25;;;;;;;22.13;19.30;;;17.30;99.90;;;;;;5013214;28;20405;-77
2023/05/22 03:20:50;;;;;;;22.30;18.50;;;17.30;99.90;;;;;;5031088;28;20513;-77
2023/05/22 03:23:16;;;;;;;22.90;18.15;;;17.30;99.90;;;;;;5031244;28;20784;-77
2023/05/22 03:25:42;;;;;;;20.30;18.15;;;17.30;99.90;;;;;;5031275;28;20048;-77
2023/05/22 03:28:08;;;;;;;23.48;18.40;;;17.30;99.90;;;;;;5030999;28;20049;-77
2023/05/22 03:30:33;;;;;;;20.77;17.55;;;17.30;99.90;;;;;;5030953;28;20527;-77
2023/05/22 03:32:59;;;;;;;23.38;18.50;;;17.30;99.90;;;;;;5030689;28;20408;-77
2023/05/22 03:35:25;;;;;;;22.02;19.00;;;17.20;99.90;;;;;;5031079;28;20033;-78
2023/05/22 03:37:50;;;;;;;24.17;20.20;;;17.10;99.90;;;;;;5030852;28;20064;-77
2023/05/22 03:40:16;;;;;;;21.88;17.60;;;17.00;99.90;;;;;;5030717;28;20560;-77
2023/05/22 03:42:42;;;;;;;21.52;17.70;;;16.90;99.90;;;;;;5030891;28;20043;-77
2023/05/22 03:45:07;;;;;;;25.58;20.00;;;16.90;99.90;;;;;;5030787;28;20042;-77
2023/05/22 03:47:33;;;;;;;25.35;20.95;;;16.80;99.90;;;;;;5030630;28;20455;-77
2023/05/22 03:49:58;;;;;;;23.65;19.05;;;16.80;99.90;;;;;;5030838;28;20037;-77
2023/05/22 03:52:24;;;;;;;22.67;19.80;;;16.70;99.90;;;;;;5030804;28;20140;-77
2023/05/22 03:54:50;;;;;;;23.23;20.50;;;16.60;99.90;;;;;;5030775;28;20033;-77
2023/05/22 03:57:18;;;;;;;24.15;20.55;;;16.60;99.90;;;;;;5030515;28;20030;-77
2023/05/22 03:59:45;;;;;;;26.73;22.05;;;16.60;99.90;;;;;;5030578;28;20068;-77
2023/05/22 04:02:11;;;;;;;26.65;21.13;;;16.60;99.90;;;;;;5030540;28;20143;-77
2023/05/22 04:04:37;;;;;;;27.77;22.08;;;16.50;99.90;;;;;;5024329;28;20160;-77
2023/05/22 04:07:06;;;;;;;25.38;20.80;;;16.50;99.90;;;;;;5017157;28;20120;-77
2023/05/22 04:09:34;;;;;;;25.02;22.00;;;16.40;99.90;;;;;;5033887;28;20453;-77
2023/05/22 04:12:00;;;;;;;25.92;21.85;;;16.40;99.90;;;;;;5034700;28;20034;-77
2023/05/22 04:14:26;;;;;;;26.40;20.70;;;16.40;99.90;;;;;;5034411;28;20045;-77
2023/05/22 04:16:51;;;;;;;29.85;22.50;;;16.50;99.90;;;;;;5034443;28;20405;-77
2023/05/22 04:19:17;;;;;;;27.10;22.95;;;16.40;99.90;;;;;;5016609;28;20117;-77
2023/05/22 04:21:44;;;;;;;28.05;22.55;;;16.40;99.90;;;;;;5034628;28;20037;-77
2023/05/22 04:24:09;;;;;;;26.83;22.83;;;16.40;99.90;;;;;;5034392;28;20045;-77
2023/05/22 04:26:36;;;;;;;28.58;23.88;;;16.40;99.90;;;;;;5034303;28;20037;-77
2023/05/22 04:29:02;;;;;;;29.65;23.23;;;16.40;99.90;;;;;;5034328;28;20041;-77
2023/05/22 04:31:28;;;;;;;27.88;23.13;;;16.40;99.90;;;;;;5033896;28;20081;-77
2023/05/22 04:33:54;;;;;;;28.92;23.60;;;16.40;99.90;;;;;;5034321;28;20084;-77
2023/05/22 04:36:25;;;;;;;26.17;21.67;;;16.30;99.90;;;;;;5034253;28;20041;-77
2023/05/22 04:38:51;;;;;;;28.30;23.15;;;16.30;99.90;;;;;;5033863;28;20048;-77
2023/05/22 04:41:17;;;;;;;30.67;23.35;;;16.40;99.90;;;;;;5033863;28;20501;-77
2023/05/22 04:43:47;;;;;;;29.17;22.77;;;16.50;99.90;;;;;;5033838;28;20038;-77
2023/05/22 04:46:16;;;;;;;27.00;23.17;;;16.60;99.90;;;;;;5034132;28;20417;-77
2023/05/22 04:48:41;;;;;;;28.40;22.55;;;16.60;99.90;;;;;;5033913;28;20112;-77
2023/05/22 04:51:07;;;;;;;27.67;22.90;;;16.70;99.90;;;;;;5034016;28;20135;-77
2023/05/22 04:53:32;;;;;;;23.98;21.05;;;16.70;99.90;;;;;;5033669;28;20034;-77
2023/05/22 04:55:58;;;;;;;28.20;20.95;;;16.80;99.90;;;;;;5033892;28;20116;-77
2023/05/22 04:58:26;;;;;;;27.45;21.33;;;16.90;99.90;;;;;;5033401;28;20121;-77
2023/05/22 05:00:52;;;;;;;28.17;21.85;;;16.90;99.90;;;;;;5033715;28;20056;-77
2023/05/22 05:03:19;;;;;;;27.92;21.00;;;17.00;99.90;;;;;;5033764;28;20045;-77
2023/05/22 05:05:44;;;;;;;23.50;20.52;;;17.10;99.90;;;;;;5033699;28;20063;-77
2023/05/22 05:08:10;;;;;;;23.63;19.63;;;17.10;99.90;;;;;;5033520;28;20120;-77
2023/05/22 05:10:36;;;;;;;23.80;19.02;;;17.10;99.90;;;;;;5032185;28;20095;-77
2023/05/22 05:13:01;;;;;;;24.80;19.90;;;17.10;99.90;;;;;;5015730;28;20065;-77
2023/05/22 05:15:28;;;;;;;24.95;18.95;;;17.10;99.90;;;;;;5033175;28;20048;-77
2023/05/22 05:17:53;;;;;;;22.73;18.42;;;17.10;99.90;;;;;;5033424;28;20067;-77
2023/05/22 05:20:19;;;;;;;25.15;18.98;;;17.10;99.90;;;;;;5033208;28;20029;-77
2023/05/22 05:22:45;;;;;;;21.70;18.25;;;17.10;99.90;;;;;;5033199;28;20424;-77
2023/05/22 05:25:11;;;;;;;21.50;17.50;;;17.10;99.90;;;;;;5033316;28;20053;-77
2023/05/22 05:27:36;;;;;;;25.83;18.33;;;17.00;99.90;;;;;;5032879;28;20131;-77
2023/05/22 05:30:02;;;;;;;22.20;16.55;;;17.00;99.90;;;;;;5033320;28;20120;-77
2023/05/22 05:32:29;;;;;;;21.85;16.23;;;17.00;99.90;;;;;;5033236;28;20076;-77
2023/05/22 05:34:55;;;;;;;19.85;16.95;;;17.00;99.90;;;;;;5032996;28;20038;-77
2023/05/22 05:37:21;;;;;;;19.38;16.52;;;17.00;99.90;;;;;;5029872;28;20046;-77
2023/05/22 05:39:47;;;;;;;24.33;16.55;;;17.00;99.90;;;;;;5026198;28;20033;-76
2023/05/22 05:42:13;;;;;;;18.83;15.65;;;17.00;99.90;;;;;;5021814;28;20034;-77
2023/05/22 05:44:38;;;;;;;22.05;16.48;;;17.00;99.90;;;;;;5030887;28;20041;-77
2023/05/22 05:47:04;;;;;;;19.63;15.52;;;17.10;99.90;;;;;;5031039;28;20049;-77
2023/05/22 05:49:30;;;;;;;22.90;15.68;;;17.10;99.90;;;;;;5032451;28;20045;-77
2023/05/22 05:51:55;;;;;;;21.80;16.05;;;17.10;99.90;;;;;;5032668;28;20060;-77
2023/05/22 05:54:21;;;;;;;20.25;15.10;;;17.10;99.90;;;;;;5032640;28;20038;-76
2023/05/22 05:56:47;;;;;;;20.65;16.20;;;17.10;99.90;;;;;;5032373;28;20104;-76
2023/05/22 05:59:12;;;;;;;19.38;15.18;;;17.10;99.90;;;;;;5032491;28;20042;-77
2023/05/22 06:01:40;;;;;;;17.52;15.15;;;17.00;99.90;;;;;;5032835;28;20048;-76
2023/05/22 06:04:07;;;;;;;20.25;16.10;;;17.10;99.90;;;;;;5032618;28;20042;-77
2023/05/22 06:06:34;;;;;;;20.90;16.40;;;17.00;99.90;;;;;;5032458;28;20077;-76
2023/05/22 06:09:01;;;;;;;23.63;17.33;;;17.00;99.90;;;;;;5032315;28;20045;-76
2023/05/22 06:11:27;;;;;;;20.27;15.57;;;16.90;99.90;;;;;;5032035;28;20041;-76
2023/05/22 06:13:53;;;;;;;21.73;16.05;;;16.90;99.90;;;;;;5032139;28;20034;-76
2023/05/22 06:16:19;;;;;;;18.77;14.88;;;16.90;99.90;;;;;;5032386;28;20040;-76
2023/05/22 06:18:45;;;;;;;22.55;16.33;;;16.90;99.90;;;;;;5032262;28;20136;-76
2023/05/22 06:21:11;;;;;;;17.02;14.20;;;16.90;99.90;;;;;;5031986;28;20390;-76
2023/05/22 06:23:36;;;;;;;18.83;13.90;;;16.90;99.90;;;;;;5032115;28;20040;-76
2023/05/22 06:26:03;;;;;;;19.77;14.90;;;16.90;99.90;;;;;;5031949;28;20382;-76
2023/05/22 06:28:29;;;;;;;22.67;15.95;;;16.80;99.90;;;;;;5031338;28;20041;-76
2023/05/22 06:30:55;;;;;;;21.17;13.98;;;16.90;99.90;;;;;;5031890;28;20045;-76
2023/05/22 06:33:21;;;;;;;21.02;15.00;;;16.90;99.90;;;;;;5031852;28;20123;-77
2023/05/22 06:35:47;;;;;;;20.75;13.65;;;16.80;99.90;;;;;;5031940;28;20061;-76
2023/05/22 06:38:12;;;;;;;21.95;14.48;;;16.80;99.90;;;;;;5031437;28;20528;-76
2023/05/22 06:40:38;;;;;;;20.38;13.23;;;16.80;99.90;;;;;;5023589;28;20037;-77
2023/05/22 06:43:03;;;;;;;17.95;12.55;;;16.90;99.90;;;;;;5032000;28;20048;-77
2023/05/22 06:45:28;;;;;;;20.70;11.95;;;16.90;99.90;;;;;;5029694;28;20037;-76
2023/05/22 06:47:54;;;;;;;19.67;11.75;;;16.90;99.90;;;;;;5026907;28;20440;-76
2023/05/22 06:50:21;;;;;;;19.45;11.23;;;16.90;99.90;;;;;;5040522;28;20029;-76
2023/05/22 06:52:47;;;;;;;19.08;11.77;;;16.90;99.90;;;;;;5032669;28;20038;-76
2023/05/22 06:55:13;;;;;;;18.30;11.18;;;16.90;99.90;;;;;;5033905;28;20045;-76
2023/05/22 06:57:38;;;;;;;13.85;9.90;;;17.00;99.90;;;;;;5029456;28;20052;-76
2023/05/22 07:00:10;;;;;;;14.35;9.82;;;17.00;99.90;;;;;;5030592;28;20033;-76
2023/05/22 07:02:36;;;;;;;15.30;10.02;;;17.00;99.90;;;;;;5028759;28;20044;-77
2023/05/22 07:05:01;;;;;;;16.50;9.30;;;17.00;99.90;;;;;;5033171;28;20501;-76
2023/05/22 07:07:27;;;;;;;17.38;8.18;;;17.10;99.90;;;;;;5022710;28;20037;-76
2023/05/22 07:09:52;;;;;;;13.38;8.05;;;17.10;99.90;;;;;;5027582;28;20486;-76
2023/05/22 07:12:19;;;;;;;12.88;7.55;;;17.10;99.90;;;;;;5020630;28;20045;-77
2023/05/22 07:14:45;;;;;;;12.75;7.60;;;17.10;99.90;;;;;;5031099;28;20483;-78
2023/05/22 07:17:10;;;;;;;10.43;7.30;;;17.10;99.90;;;;;;5031134;28;20072;-77
2023/05/22 07:19:36;;;;;;;14.85;7.63;;;17.00;99.90;;;;;;5030917;28;20094;-78
2023/05/22 07:22:01;;;;;;;9.55;6.75;;;17.10;99.90;;;;;;5026378;28;20041;-77
2023/05/22 07:24:27;;;;;;;14.68;7.30;;;17.00;99.90;;;;;;5025925;28;20049;-77
2023/05/22 07:26:52;;;;;;;12.80;6.57;;;17.00;99.90;;;;;;5029574;28;20037;-77
2023/05/22 07:29:18;;;;;;;15.10;7.25;;;17.00;99.90;;;;;;5030258;28;20091;-77
2023/05/22 07:31:43;;;;;;;14.50;7.22;;;17.00;99.90;;;;;;5030265;28;20045;-77
2023/05/22 07:34:09;;;;;;;12.00;6.78;;;17.00;99.90;;;;;;5028094;28;20046;-77
2023/05/22 07:36:35;;;;;;;10.65;6.80;;;16.90;99.90;;;;;;5027993;28;20029;-77
2023/05/22 07:39:00;;;;;;;11.90;6.47;;;17.00;99.90;;;;;;5028667;28;20037;-77
2023/05/22 07:41:26;;;;;;;10.18;6.50;;;17.00;99.90;;;;;;5030626;28;20496;-78
2023/05/22 07:43:51;;;;;;;13.55;7.03;;;17.10;99.90;;;;;;5027417;28;20048;-77
2023/05/22 07:46:17;;;;;;;10.90;6.03;;;17.10;99.90;;;;;;5027103;28;20045;-77
2023/05/22 07:48:43;;;;;;;12.45;6.45;;;17.20;99.90;;;;;;5028850;28;20078;-77
2023/05/22 07:51:08;;;;;;;12.50;6.75;;;17.30;99.90;;;;;;5028106;28;20091;-76
2023/05/22 07:53:34;;;;;;;14.98;6.97;;;17.40;99.90;;;;;;5030068;28;20069;-77
2023/05/22 07:56:00;;;;;;;12.15;6.43;;;17.40;99.90;;;;;;5030759;28;20417;-77
2023/05/22 07:58:26;;;;;;;10.55;6.38;;;17.50;99.90;;;;;;5029426;28;20034;-77
2023/05/22 08:00:51;;;;;;;15.43;6.35;;;17.50;99.90;;;;;;5029019;28;20061;-77
2023/05/22 08:03:17;;;;;;;16.08;6.95;;;17.40;99.90;;;;;;5029983;28;20576;-77
2023/05/22 08:05:43;;;;;;;13.02;6.68;;;17.40;99.90;;;;;;5027433;28;20132;-76
2023/05/22 08:08:11;;;;;;;14.07;6.50;;;17.40;99.90;;;;;;5026075;28;20068;-76
2023/05/22 08:10:37;;;;;;;10.35;6.60;;;17.40;99.90;;;;;;5019782;28;20137;-76
2023/05/22 08:13:05;;;;;;;13.95;6.80;;;17.40;99.90;;;;;;5024320;28;20120;-76
2023/05/22 08:15:31;;;;;;;12.68;7.00;;;17.40;99.90;;;;;;5027480;28;20042;-76
2023/05/22 08:17:57;;;;;;;12.43;6.75;;;17.30;99.90;;;;;;5025648;28;20037;-76
2023/05/22 08:20:22;;;;;;;13.45;7.22;;;17.30;99.90;;;;;;5022660;28;20044;-77
2023/05/22 08:22:48;;;;;;;12.15;6.60;;;17.20;99.90;;;;;;5029951;28;20041;-77
2023/05/22 08:25:13;;;;;;;13.23;6.90;;;17.20;99.90;;;;;;5030245;28;20128;-76
2023/05/22 08:27:39;;;;;;;13.52;7.10;;;17.30;99.90;;;;;;5022074;28;20409;-77
2023/05/22 08:30:05;;;;;;;12.35;7.18;;;17.30;99.90;;;;;;5021620;28;20041;-76
2023/05/22 08:32:31;;;;;;;13.60;7.18;;;17.40;99.90;;;;;;5025920;28;20548;-77
2023/05/22 08:34:58;;;;;;;17.10;8.00;;;17.40;99.90;;;;;;5028289;28;20082;-77
2023/05/22 08:37:23;;;;;;;15.10;7.60;;;17.50;99.90;;;;;;5030146;28;20517;-77
2023/05/22 08:39:49;;;;;;;10.25;6.70;;;17.50;99.90;;;;;;5027947;28;20036;-77
2023/05/22 08:42:14;;;;;;;15.90;8.13;;;17.60;99.90;;;;;;5010745;28;20037;-77
2023/05/22 08:44:40;;;;;;;12.63;6.90;;;17.60;99.90;;;;;;5029325;28;20047;-77
2023/05/22 08:47:10;;;;;;;12.93;7.75;;;17.70;99.90;;;;;;5025629;28;20088;-77
2023/05/22 08:49:37;;;;;;;14.60;7.95;;;17.70;99.90;;;;;;5026815;28;20065;-76
2023/05/22 08:52:13;;;;;;;14.15;7.95;;;17.70;99.90;;;;;;5033074;28;20128;-77
2023/05/22 08:54:50;;;;;;;13.18;7.68;;;17.80;99.90;;;;;;5028621;28;20349;-76
2023/05/22 08:57:18;;;;;;;15.38;8.30;;;17.80;99.90;;;;;;5031540;28;20033;-77
2023/05/22 08:59:44;;;;;;;12.20;7.75;;;17.70;99.90;;;;;;5031755;28;20040;-77
2023/05/22 09:02:12;;;;;;;15.48;8.38;;;17.70;99.90;;;;;;5032067;28;20045;-76
2023/05/22 09:04:40;;;;;;;16.42;8.18;;;17.80;99.90;;;;;;5026906;28;20400;-77
2023/05/22 09:07:05;;;;;;;14.82;8.10;;;17.90;99.90;;;;;;5033028;28;20045;-76
2023/05/22 09:09:35;;;;;;;12.25;7.80;;;17.90;99.90;;;;;;5028203;28;20116;-77
2023/05/22 09:12:01;;;;;;;13.30;7.95;;;18.10;99.90;;;;;;5033546;28;20076;-77
2023/05/22 09:14:27;;;;;;;11.48;8.57;;;18.20;99.90;;;;;;5031813;28;20156;-76
2023/05/22 09:16:53;;;;;;;14.88;8.40;;;18.40;99.90;;;;;;5029904;28;20060;-77
2023/05/22 09:19:19;;;;;;;12.98;8.07;;;18.50;99.90;;;;;;5030970;28;20064;-77
2023/05/22 09:21:46;;;;;;;10.57;8.13;;;18.60;99.90;;;;;;5032496;28;20041;-77
2023/05/22 09:24:12;;;;;;;13.68;8.50;;;18.70;99.90;;;;;;5028289;28;20045;-76
2023/05/22 09:26:38;;;;;;;11.88;8.50;;;18.80;99.90;;;;;;5022343;28;20045;-77
2023/05/22 09:29:05;;;;;;;12.30;8.43;;;19.00;99.90;;;;;;5025225;28;20042;-76
2023/05/22 09:31:31;;;;;;;14.15;8.50;;;19.00;99.90;;;;;;5030559;28;20037;-77
2023/05/22 09:33:57;;;;;;;13.82;8.63;;;19.20;99.90;;;;;;5032367;28;20072;-77
2023/05/22 09:36:31;;;;;;;12.15;7.68;;;19.40;99.90;;;;;;5030053;28;20076;-77
2023/05/22 09:38:59;;;;;;;16.30;8.88;;;19.70;99.90;;;;;;5029825;28;20436;-77
2023/05/22 09:41:26;;;;;;;12.30;9.07;;;19.90;99.90;;;;;;5030953;28;20034;-76
2023/05/22 09:43:52;;;;;;;17.75;9.50;;;20.00;99.90;;;;;;5030463;28;20041;-76
2023/05/22 09:46:17;;;;;;;15.45;8.88;;;20.10;99.90;;;;;;5031165;28;20041;-77
2023/05/22 09:48:43;;;;;;;11.77;8.70;;;20.30;99.90;;;;;;5029638;28;20065;-77
2023/05/22 09:51:09;;;;;;;13.90;9.07;;;20.40;99.90;;;;;;5031172;28;20071;-76
2023/05/22 09:53:38;;;;;;;10.50;8.05;;;20.50;99.90;;;;;;5031130;28;20041;-76
2023/05/22 09:56:09;;;;;;;12.95;9.05;;;20.60;99.90;;;;;;5026723;28;20049;-76
2023/05/22 09:58:39;;;;;;;13.38;8.77;;;20.60;99.90;;;;;;5028691;28;20492;-76
2023/05/22 10:01:09;;;;;;;16.40;8.95;;;20.60;99.90;;;;;;5028121;28;20048;-76
2023/05/22 10:03:35;;;;;;;15.73;9.27;;;20.60;99.90;;;;;;5031677;28;20136;-76
2023/05/22 10:06:02;;;;;;;12.57;8.70;;;20.50;99.90;;;;;;5032405;28;20532;-74
2023/05/22 10:08:30;;;;;;;14.45;9.82;;;20.50;99.90;;;;;;5032185;28;20056;-77
2023/05/22 10:10:57;;;;;;;17.08;10.35;;;20.40;99.90;;;;;;5032042;28;20045;-75
2023/05/22 10:13:24;;;;;;;14.02;9.73;;;20.30;99.90;;;;;;5032087;28;20448;-75
2023/05/22 10:15:50;;;;;;;13.40;9.63;;;20.40;99.90;;;;;;5032373;28;20033;-76
2023/05/22 10:18:16;;;;;;;14.13;9.48;;;20.40;99.90;;;;;;5032171;28;20041;-76
2023/05/22 10:20:42;;;;;;;14.50;9.07;;;20.40;99.90;;;;;;5032212;28;20026;-75
2023/05/22 10:23:09;;;;;;;16.75;11.10;;;20.50;99.90;;;;;;5032242;28;20401;-75
2023/05/22 10:25:37;;;;;;;17.55;10.25;;;20.50;99.90;;;;;;5031688;28;20029;-76
2023/05/22 10:28:03;;;;;;;15.63;10.50;;;20.60;99.90;;;;;;5032091;28;20045;-76
2023/05/22 10:30:50;;;;;;;13.88;10.45;;;20.70;99.90;;;;;;5031879;28;20045;-77
2023/05/22 10:33:32;;;;;;;15.05;10.65;;;20.80;99.90;;;;;;5031833;28;20057;-75
2023/05/22 10:36:03;;;;;;;13.48;9.55;;;20.90;99.90;;;;;;5033425;28;20124;-76
2023/05/22 10:38:56;;;;;;;14.93;9.88;;;21.00;99.90;;;;;;5038179;28;20033;-76
2023/05/22 10:41:23;;;;;;;15.80;10.38;;;21.20;99.90;;;;;;5038189;28;20063;-77
2023/05/22 10:43:49;;;;;;;14.80;10.73;;;21.30;99.90;;;;;;5031747;28;20065;-77
2023/05/22 10:46:15;;;;;;;17.17;10.82;;;21.40;99.90;;;;;;5033935;28;20126;-76
2023/05/22 10:48:46;;;;;;;14.48;10.85;;;21.60;99.90;;;;;;5032174;28;20081;-75
2023/05/22 10:51:19;;;;;;;17.23;11.30;;;21.80;99.90;;;;;;5031662;28;20037;-76
2023/05/22 10:54:00;;;;;;;12.90;10.35;;;22.00;99.90;;;;;;5025115;28;20509;-75
2023/05/22 10:56:33;;;;;;;20.17;11.68;;;22.20;99.90;;;;;;5029792;28;20041;-75
2023/05/22 10:59:03;;;;;;;17.33;11.10;;;22.40;99.90;;;;;;5031009;28;20048;-77
2023/05/22 11:01:32;;;;;;;16.27;10.68;;;22.60;99.90;;;;;;5030781;28;20142;-75
2023/05/22 11:04:03;;;;;;;16.67;10.55;;;22.60;99.90;;;;;;5032899;28;20098;-76
2023/05/22 11:06:36;;;;;;;15.52;11.15;;;22.60;99.90;;;;;;5024439;28;20046;-76
2023/05/22 11:09:28;;;;;;;17.02;10.85;;;22.60;99.90;;;;;;5026417;28;20041;-75
2023/05/22 11:12:18;;;;;;;17.83;10.50;;;22.70;99.90;;;;;;5029641;28;20041;-76
2023/05/22 11:15:05;;;;;;;16.48;11.30;;;23.10;99.90;;;;;;5026675;28;20099;-75
2023/05/22 11:17:32;;;;;;;16.17;10.73;;;23.20;99.90;;;;;;5030753;28;20037;-75
2023/05/22 11:20:06;;;;;;;19.23;11.63;;;23.00;99.90;;;;;;5030827;28;20508;-75
2023/05/22 11:22:59;;;;;;;17.88;10.55;;;22.80;99.90;;;;;;5031122;28;20052;-76
2023/05/22 11:25:26;;;;;;;17.80;11.02;;;22.60;99.90;;;;;;5018641;28;20080;-76
2023/05/22 11:27:53;;;;;;;14.88;10.88;;;22.50;99.90;;;;;;5029802;28;20519;-75
2023/05/22 11:30:19;;;;;;;16.67;10.38;;;22.30;99.90;;;;;;5030706;28;20049;-75
2023/05/22 11:32:46;;;;;;;16.23;10.90;;;22.30;99.90;;;;;;5030469;28;20080;-75
2023/05/22 11:35:20;;;;;;;15.70;10.77;;;22.60;99.90;;;;;;5030673;28;20042;-75
2023/05/22 11:37:47;;;;;;;15.43;11.43;;;22.90;99.90;;;;;;5030733;28;20072;-75
2023/05/22 11:40:15;;;;;;;15.45;11.40;;;23.20;99.90;;;;;;5030704;28;20095;-74
2023/05/22 11:42:41;;;;;;;18.90;12.00;;;23.40;99.90;;;;;;5030757;28;20073;-76
2023/05/22 11:45:07;;;;;;;13.07;10.38;;;23.40;99.90;;;;;;5030945;28;20096;-75
2023/05/22 11:47:32;;;;;;;14.35;10.80;;;23.50;99.90;;;;;;5030837;28;20144;-75
2023/05/22 11:49:59;;;;;;;14.70;11.27;;;23.80;99.90;;;;;;5030499;28;20121;-75
2023/05/22 11:52:24;;;;;;;12.85;10.00;;;24.00;99.90;;;;;;5030593;28;20037;-75
2023/05/22 11:54:53;;;;;;;16.73;10.18;;;24.30;99.90;;;;;;5030698;28;20038;-75
2023/05/22 11:57:21;;;;;;;13.05;9.60;;;24.50;99.90;;;;;;5030442;28;20037;-75
2023/05/22 11:59:47;;;;;;;13.40;9.57;;;24.60;99.90;;;;;;5028651;28;20037;-76
2023/05/22 12:02:13;;;;;;;13.20;9.82;;;24.80;99.90;;;;;;5012871;28;20040;-76
2023/05/22 12:04:38;;;;;;;13.45;9.02;;;24.60;99.90;;;;;;5030770;28;20088;-76
2023/05/22 12:07:04;;;;;;;12.73;8.73;;;24.30;99.90;;;;;;5030722;28;20416;-76
2023/05/22 12:09:30;;;;;;;11.77;9.18;;;24.60;99.90;;;;;;5030133;28;20030;-76
2023/05/22 12:11:56;;;;;;;12.35;8.98;;;24.80;99.90;;;;;;5030693;28;20083;-76
2023/05/22 12:14:30;;;;;;;11.18;8.50;;;24.70;99.90;;;;;;5029255;28;20042;-76
2023/05/22 12:16:57;;;;;;;11.98;8.43;;;24.70;99.90;;;;;;5028229;28;20501;-76
2023/05/22 12:19:24;;;;;;;13.18;8.73;;;25.00;99.90;;;;;;5029432;28;20036;-76
2023/05/22 12:21:50;;;;;;;13.60;9.50;;;25.40;99.90;;;;;;5029402;28;20045;-76
2023/05/22 12:24:20;;;;;;;15.73;11.48;;;25.70;99.90;;;;;;5029339;28;20041;-77
2023/05/22 12:26:50;;;;;;;13.38;8.93;;;25.70;99.90;;;;;;5032210;28;20072;-76
2023/05/22 12:29:15;;;;;;;12.65;9.63;;;25.70;99.90;;;;;;5032307;28;20318;-78
2023/05/22 12:31:45;;;;;;;11.27;9.43;;;25.80;99.90;;;;;;5032662;28;20087;-77
2023/05/22 12:34:11;;;;;;;13.30;10.25;;;25.50;99.90;;;;;;5032284;28;20124;-77